createdAt,value
2019-05-14T00:00:28.804Z,102993.80
2019-05-14T00:02:31.811Z,102991.69
2019-05-14T00:04:33.298Z,102994.89
2019-05-14T00:06:34.680Z,102997.96
2019-05-14T00:08:36.053Z,102999.78
2019-05-14T00:10:37.465Z,103002.98
2019-05-14T00:12:38.933Z,103005.06
2019-05-14T00:14:43.497Z,103004.64
2019-05-14T00:16:43.633Z,103000.52
2019-05-14T00:18:45.044Z,103010.88
2019-05-14T00:20:46.417Z,103003.69
2019-05-14T00:22:47.835Z,102999.45
2019-05-14T00:24:49.247Z,102995.06
2019-05-14T00:26:51.686Z,102999.99
2019-05-14T00:28:53.304Z,102998.92
2019-05-14T00:30:54.705Z,102999.06
2019-05-14T00:32:56.112Z,102995.73
2019-05-14T00:34:57.521Z,103000.79
2019-05-14T00:36:58.900Z,102995.97
2019-05-14T00:39:01.821Z,102999.29
2019-05-14T00:41:03.446Z,102996.23
2019-05-14T00:43:04.816Z,102994.34
2019-05-14T00:45:06.533Z,102999.05
2019-05-14T00:47:07.909Z,102999.87
2019-05-14T00:49:09.312Z,102994.95
2019-05-14T00:51:12.580Z,102993.03
2019-05-14T00:53:13.980Z,102990.17
2019-05-14T00:55:15.391Z,102995.55
2019-05-14T00:57:16.764Z,102996.44
2019-05-14T00:59:18.220Z,103003.01
2019-05-14T01:01:21.503Z,103000.11
2019-05-14T01:03:22.908Z,103003.78
2019-05-14T01:05:24.317Z,103000.23
2019-05-14T01:07:25.691Z,103002.99
2019-05-14T01:09:27.072Z,103000.06
2019-05-14T01:11:28.484Z,103001.36
2019-05-14T01:13:31.219Z,103002.36
2019-05-14T01:15:32.781Z,102997.95
2019-05-14T01:17:34.154Z,102993.02
2019-05-14T01:19:35.567Z,102993.72
2019-05-14T01:21:36.982Z,102987.06
2019-05-14T01:23:41.350Z,102991.44
2019-05-14T01:25:42.444Z,102984.38
2019-05-14T01:27:43.867Z,102985.53
2019-05-14T01:29:45.225Z,102991.09
2019-05-14T01:31:46.607Z,102989.42
2019-05-14T01:33:48.012Z,102990.91
2019-05-14T01:35:51.511Z,102992.79
2019-05-14T01:37:52.711Z,102989.37
2019-05-14T01:39:54.121Z,102987.49
2019-05-14T01:41:55.548Z,102992.64
2019-05-14T01:43:56.982Z,102990.82
2019-05-14T01:45:58.399Z,102988.99
2019-05-14T01:48:01.182Z,102990.07
2019-05-14T01:50:05.757Z,102990.94
2019-05-14T01:52:07.170Z,102994.02
2019-05-14T01:54:08.549Z,102995.13
2019-05-14T01:56:11.999Z,102988.48
2019-05-14T01:58:13.277Z,102990.79
2019-05-14T02:00:15.160Z,102989.67
2019-05-14T02:02:16.612Z,102989.14
2019-05-14T02:04:17.994Z,102991.47
2019-05-14T02:06:21.324Z,102990.17
2019-05-14T02:08:22.688Z,102992.11
2019-05-14T02:10:24.464Z,102995.11
2019-05-14T02:12:25.870Z,102993.73
2019-05-14T02:14:27.256Z,102995.39
2019-05-14T02:16:28.775Z,102987.72
2019-05-14T02:18:31.175Z,102988.73
2019-05-14T02:20:32.764Z,102988.73
2019-05-14T02:22:34.236Z,102989.39
2019-05-14T02:24:35.613Z,102989.58
2019-05-14T02:26:37.013Z,102989.66
2019-05-14T02:28:38.388Z,102989.77
2019-05-14T02:30:51.748Z,102990.53
2019-05-14T02:32:43.140Z,102992.69
2019-05-14T02:34:44.515Z,102987.91
2019-05-14T02:36:49.398Z,102987.23
2019-05-14T02:38:49.591Z,102985.64
2019-05-14T02:40:51.223Z,102989.90
2019-05-14T02:42:52.601Z,102984.39
2019-05-14T02:44:54.008Z,102987.25
2019-05-14T02:46:55.422Z,102986.36
2019-05-14T02:48:59.484Z,102984.16
2019-05-14T02:51:00.229Z,102983.38
2019-05-14T02:53:01.771Z,102981.09
2019-05-14T02:55:05.147Z,102981.84
2019-05-14T02:57:10.098Z,102980.66
2019-05-14T02:59:10.117Z,102976.52
2019-05-14T03:01:11.705Z,102979.81
2019-05-14T03:03:13.073Z,102980.52
2019-05-14T03:05:14.994Z,102982.06
2019-05-14T03:07:19.164Z,102978.87
2019-05-14T03:09:20.291Z,102975.70
2019-05-14T03:11:22.155Z,102977.64
2019-05-14T03:13:23.530Z,102974.97
2019-05-14T03:15:25.001Z,102972.45
2019-05-14T03:17:29.782Z,102976.17
2019-05-14T03:19:30.169Z,102971.17
2019-05-14T03:21:31.684Z,102972.19
2019-05-14T03:23:33.037Z,102970.86
2019-05-14T03:25:34.407Z,102966.66
2019-05-14T03:27:35.818Z,102970.66
2019-05-14T03:29:39.822Z,102968.41
2019-05-14T03:31:42.567Z,102971.89
2019-05-14T03:33:44.985Z,102967.47
2019-05-14T03:35:52.081Z,102966.98
2019-05-14T03:37:50.068Z,102975.22
2019-05-14T03:39:51.526Z,102971.75
2019-05-14T03:41:52.896Z,102972.06
2019-05-14T03:43:54.298Z,102974.39
2019-05-14T03:45:58.986Z,102974.91
2019-05-14T03:47:59.394Z,102974.46
2019-05-14T03:50:00.754Z,102975.91
2019-05-14T03:52:02.152Z,102974.12
2019-05-14T03:54:07.507Z,102975.77
2019-05-14T03:56:10.131Z,102977.03
2019-05-14T03:58:10.136Z,102981.72
2019-05-14T04:00:12.102Z,102980.67
2019-05-14T04:02:14.098Z,102976.05
2019-05-14T04:04:19.172Z,102977.92
2019-05-14T04:06:20.275Z,102976.94
2019-05-14T04:08:24.343Z,102977.34
2019-05-14T04:10:26.147Z,102982.71
2019-05-14T04:12:30.225Z,102980.83
2019-05-14T04:14:32.933Z,102984.69
2019-05-14T04:16:35.816Z,102985.22
2019-05-14T04:18:40.202Z,102985.52
2019-05-14T04:20:43.336Z,102995.30
2019-05-14T04:22:50.091Z,102990.83
2019-05-14T04:24:53.923Z,102992.66
2019-05-14T04:27:07.338Z,102990.05
2019-05-14T04:29:04.982Z,102991.83
2019-05-14T04:31:09.493Z,102994.59
2019-05-14T04:33:10.785Z,102992.63
2019-05-14T04:35:12.275Z,102995.30
2019-05-14T04:37:13.676Z,102989.58
2019-05-14T04:39:15.124Z,102993.93
2019-05-14T04:41:19.547Z,102996.79
2019-05-14T04:43:19.864Z,102992.27
2019-05-14T04:45:21.251Z,102997.44
2019-05-14T04:47:32.012Z,102994.06
2019-05-14T04:49:28.915Z,102994.22
2019-05-14T04:51:30.212Z,102992.08
2019-05-14T04:53:32.074Z,102986.84
2019-05-14T04:55:33.655Z,102990.08
2019-05-14T04:57:35.038Z,102990.27
2019-05-14T04:59:39.648Z,102987.51
2019-05-14T05:01:40.281Z,102990.38
2019-05-14T05:03:41.962Z,102988.94
2019-05-14T05:05:43.332Z,102991.48
2019-05-14T05:07:44.671Z,102988.24
2019-05-14T05:09:46.084Z,102988.16
2019-05-14T05:11:49.757Z,102986.98
2019-05-14T05:13:50.762Z,102992.66
2019-05-14T05:15:52.121Z,102988.66
2019-05-14T05:17:53.587Z,102983.53
2019-05-14T05:19:54.971Z,102984.09
2019-05-14T05:21:58.554Z,102987.28
2019-05-14T05:23:59.661Z,102985.69
2019-05-14T05:26:01.065Z,102987.44
2019-05-14T05:28:02.466Z,102986.63
2019-05-14T05:30:08.282Z,102989.97
2019-05-14T05:32:09.048Z,102983.13
2019-05-14T05:34:10.424Z,102984.97
2019-05-14T05:36:11.857Z,102980.27
2019-05-14T05:38:13.231Z,102987.16
2019-05-14T05:40:14.809Z,102989.71
2019-05-14T05:42:18.582Z,102986.61
2019-05-14T05:44:19.581Z,102988.24
2019-05-14T05:46:20.996Z,102991.36
2019-05-14T05:48:22.392Z,102986.95
2019-05-14T05:50:23.787Z,102982.69
2019-05-14T05:52:25.159Z,102983.16
2019-05-14T05:54:29.014Z,102971.15
2019-05-14T05:56:29.816Z,102975.34
2019-05-14T05:58:31.189Z,102981.00
2019-05-14T06:00:40.203Z,102976.52
2019-05-14T06:02:41.671Z,102971.25
2019-05-14T06:04:43.047Z,102975.27
2019-05-14T06:06:44.456Z,102968.51
2019-05-14T06:08:45.819Z,102963.02
2019-05-14T06:10:49.045Z,102956.25
2019-05-14T06:12:50.467Z,102953.79
2019-05-14T06:14:51.830Z,102946.70
2019-05-14T06:16:53.193Z,102950.45
2019-05-14T06:18:54.636Z,102948.12
2019-05-14T06:20:58.329Z,102954.47
2019-05-14T06:22:59.360Z,102950.20
2019-05-14T06:25:00.725Z,102939.40
2019-05-14T06:27:02.083Z,102931.66
2019-05-14T06:29:03.483Z,102933.24
2019-05-14T06:31:04.894Z,102933.57
2019-05-14T06:33:09.058Z,102936.94
2019-05-14T06:35:09.841Z,102939.63
2019-05-14T06:37:11.247Z,102945.61
2019-05-14T06:39:12.659Z,102946.70
2019-05-14T06:41:14.923Z,102946.47
2019-05-14T06:43:16.344Z,102957.88
2019-05-14T06:45:18.753Z,102952.70
2019-05-14T06:47:20.275Z,102937.77
2019-05-14T06:49:21.669Z,102938.11
2019-05-14T06:51:23.079Z,102945.77
2019-05-14T06:53:24.446Z,102945.69
2019-05-14T06:55:28.308Z,102956.84
2019-05-14T06:57:29.146Z,102950.69
2019-05-14T06:59:30.546Z,102950.60
2019-05-14T07:01:31.951Z,102957.60
2019-05-14T07:03:33.313Z,102958.53
2019-05-14T07:05:34.720Z,102956.86
2019-05-14T07:07:36.094Z,102953.40
2019-05-14T07:09:38.412Z,102950.55
2019-05-14T07:11:40.155Z,102953.61
2019-05-14T07:13:41.520Z,102944.02
2019-05-14T07:15:42.995Z,102953.92
2019-05-14T07:17:44.428Z,102938.20
2019-05-14T07:19:45.824Z,102950.22
2019-05-14T07:21:49.224Z,102948.69
2019-05-14T07:23:50.488Z,102948.39
2019-05-14T07:25:51.849Z,102950.98
2019-05-14T07:27:53.247Z,102953.88
2019-05-14T07:29:54.618Z,102949.63
2019-05-14T07:31:58.232Z,102951.92
2019-05-14T07:33:59.435Z,102958.25
2019-05-14T07:36:00.797Z,102963.16
2019-05-14T07:38:02.211Z,102966.45
2019-05-14T07:40:05.180Z,102966.27
2019-05-14T07:42:09.349Z,102959.42
2019-05-14T07:44:10.257Z,102959.27
2019-05-14T07:46:11.625Z,102955.55
2019-05-14T07:48:13.016Z,102950.36
2019-05-14T07:50:14.896Z,102939.66
2019-05-14T07:52:16.253Z,102933.78
2019-05-14T07:54:19.540Z,102940.67
2019-05-14T07:56:20.924Z,102935.67
2019-05-14T07:58:22.333Z,102943.09
2019-05-14T08:00:24.005Z,102942.59
2019-05-14T08:02:25.504Z,102948.36
2019-05-14T08:04:28.862Z,102944.03
2019-05-14T08:06:30.161Z,102941.05
2019-05-14T08:08:31.697Z,102937.44
2019-05-14T08:10:33.062Z,102933.73
2019-05-14T08:12:34.428Z,102939.35
2019-05-14T08:14:46.526Z,102932.18
2019-05-14T08:16:39.289Z,102930.65
2019-05-14T08:18:40.656Z,102929.14
2019-05-14T08:20:42.052Z,102929.45
2019-05-14T08:22:43.425Z,102930.71
2019-05-14T08:24:45.949Z,102929.52
2019-05-14T08:26:48.678Z,102925.13
2019-05-14T08:28:50.297Z,102925.79
2019-05-14T08:30:51.702Z,102932.03
2019-05-14T08:32:53.069Z,102921.54
2019-05-14T08:34:54.429Z,102904.19
2019-05-14T08:36:55.846Z,102906.04
2019-05-14T08:38:58.139Z,102907.16
2019-05-14T08:40:59.574Z,102905.89
2019-05-14T08:43:00.967Z,102902.86
2019-05-14T08:45:10.504Z,102907.83
2019-05-14T08:47:10.277Z,102895.89
2019-05-14T08:49:11.672Z,102896.97
2019-05-14T08:51:13.080Z,102893.62
2019-05-14T08:53:14.466Z,102887.89
2019-05-14T08:55:18.324Z,102885.92
2019-05-14T08:57:19.331Z,102890.57
2019-05-14T08:59:20.779Z,102889.26
2019-05-14T09:01:22.168Z,102880.02
2019-05-14T09:03:23.537Z,102888.32
2019-05-14T09:05:24.929Z,102879.46
2019-05-14T09:07:28.809Z,102881.58
2019-05-14T09:09:29.619Z,102876.47
2019-05-14T09:11:35.736Z,102868.33
2019-05-14T09:13:34.268Z,102872.20
2019-05-14T09:15:38.330Z,102848.67
2019-05-14T09:17:39.276Z,102852.44
2019-05-14T09:19:57.162Z,102850.09
2019-05-14T09:21:44.158Z,102852.65
2019-05-14T09:23:48.060Z,102846.32
2019-05-14T09:25:53.011Z,102855.34
2019-05-14T09:27:52.199Z,102857.98
2019-05-14T09:29:53.557Z,102860.64
2019-05-14T09:31:54.943Z,102858.01
2019-05-14T09:33:58.332Z,102846.38
2019-05-14T09:36:11.056Z,102842.71
2019-05-14T09:38:03.131Z,102842.86
2019-05-14T09:40:05.961Z,102838.28
2019-05-14T09:42:08.180Z,102835.81
2019-05-14T09:44:09.815Z,102831.61
2019-05-14T09:46:11.215Z,102836.92
2019-05-14T09:48:12.583Z,102836.31
2019-05-14T09:50:18.630Z,102834.89
2019-05-14T09:52:18.647Z,102835.05
2019-05-14T09:54:20.382Z,102836.20
2019-05-14T09:56:21.776Z,102815.59
2019-05-14T09:58:23.164Z,102814.16
2019-05-14T10:00:24.723Z,102805.98
2019-05-14T10:02:26.120Z,102811.81
2019-05-14T10:04:27.515Z,102807.55
2019-05-14T10:06:28.879Z,102817.47
2019-05-14T10:08:30.244Z,102818.21
2019-05-14T10:10:31.712Z,102818.17
2019-05-14T10:12:33.060Z,102812.23
2019-05-14T10:14:34.414Z,102801.74
2019-05-14T10:16:38.241Z,102803.05
2019-05-14T10:18:39.092Z,102786.37
2019-05-14T10:20:45.367Z,102801.20
2019-05-14T10:22:43.781Z,102802.48
2019-05-14T10:24:45.169Z,102813.42
2019-05-14T10:26:48.954Z,102809.77
2019-05-14T10:28:49.906Z,102810.34
2019-05-14T10:30:51.310Z,102811.45
2019-05-14T10:32:52.721Z,102812.80
2019-05-14T10:34:54.083Z,102811.42
2019-05-14T10:36:55.444Z,102803.94
2019-05-14T10:38:58.844Z,102805.01
2019-05-14T10:41:00.104Z,102801.62
2019-05-14T10:43:01.714Z,102803.02
2019-05-14T10:45:12.288Z,102799.70
2019-05-14T10:47:09.836Z,102793.56
2019-05-14T10:49:19.480Z,102786.80
2019-05-14T10:51:14.497Z,102785.35
2019-05-14T10:53:15.899Z,102776.30
2019-05-14T10:55:18.532Z,102776.34
2019-05-14T10:57:20.227Z,102773.39
2019-05-14T10:59:21.652Z,102779.63
2019-05-14T11:01:23.108Z,102776.33
2019-05-14T11:03:24.500Z,102777.88
2019-05-14T11:05:27.994Z,102774.89
2019-05-14T11:07:29.359Z,102770.65
2019-05-14T11:09:30.783Z,102768.20
2019-05-14T11:11:32.187Z,102767.15
2019-05-14T11:13:33.584Z,102768.77
2019-05-14T11:15:34.933Z,102769.46
2019-05-14T11:17:36.369Z,102776.05
2019-05-14T11:19:38.982Z,102771.83
2019-05-14T11:21:40.538Z,102772.50
2019-05-14T11:23:41.964Z,102771.89
2019-05-14T11:25:43.330Z,102765.77
2019-05-14T11:27:44.722Z,102770.77
2019-05-14T11:29:46.114Z,102766.44
2019-05-14T11:31:48.423Z,102767.96
2019-05-14T11:33:50.084Z,102761.67
2019-05-14T11:35:51.492Z,102754.20
2019-05-14T11:37:52.854Z,102755.30
2019-05-14T11:39:54.227Z,102758.63
2019-05-14T11:41:55.622Z,102750.03
2019-05-14T11:43:59.308Z,102750.72
2019-05-14T11:46:00.597Z,102751.38
2019-05-14T11:48:01.998Z,102750.98
2019-05-14T11:50:09.013Z,102748.45
2019-05-14T11:52:11.760Z,102744.22
2019-05-14T11:54:13.452Z,102736.95
2019-05-14T11:56:14.846Z,102727.47
2019-05-14T11:58:20.371Z,102723.04
2019-05-14T12:00:20.105Z,102731.44
2019-05-14T12:02:21.470Z,102734.59
2019-05-14T12:04:22.997Z,102742.78
2019-05-14T12:06:24.408Z,102740.28
2019-05-14T12:08:25.863Z,102734.03
2019-05-14T12:10:29.261Z,102733.02
2019-05-14T12:12:30.531Z,102735.42
2019-05-14T12:14:32.250Z,102734.41
2019-05-14T12:16:33.595Z,102732.30
2019-05-14T12:18:34.989Z,102727.63
2019-05-14T12:20:39.340Z,102727.47
2019-05-14T12:22:39.729Z,102723.75
2019-05-14T12:24:41.134Z,102725.05
2019-05-14T12:26:42.634Z,102716.78
2019-05-14T12:28:44.039Z,102713.61
2019-05-14T12:30:45.387Z,102711.18
2019-05-14T12:32:49.790Z,102709.91
2019-05-14T12:34:50.097Z,102707.03
2019-05-14T12:36:51.465Z,102706.64
2019-05-14T12:38:52.851Z,102702.87
2019-05-14T12:40:54.207Z,102697.34
2019-05-14T12:42:58.579Z,102686.63
2019-05-14T12:44:58.933Z,102687.86
2019-05-14T12:47:00.297Z,102672.92
2019-05-14T12:49:01.707Z,102695.45
2019-05-14T12:51:03.116Z,102688.44
2019-05-14T12:53:04.474Z,102692.06
2019-05-14T12:55:08.867Z,102699.66
2019-05-14T12:57:09.739Z,102703.05
2019-05-14T12:59:11.134Z,102693.23
2019-05-14T13:01:12.529Z,102691.66
2019-05-14T13:03:13.935Z,102690.47
2019-05-14T13:05:18.131Z,102687.99
2019-05-14T13:07:19.236Z,102693.02
2019-05-14T13:09:21.676Z,102684.22
2019-05-14T13:11:23.445Z,102683.94
2019-05-14T13:13:24.801Z,102674.50
2019-05-14T13:15:28.679Z,102669.22
2019-05-14T13:17:29.472Z,102661.45
2019-05-14T13:19:30.836Z,102662.96
2019-05-14T13:21:32.194Z,102670.61
2019-05-14T13:23:33.638Z,102668.62
2019-05-14T13:25:35.107Z,102669.34
2019-05-14T13:27:38.947Z,102650.95
2019-05-14T13:29:39.786Z,102652.58
2019-05-14T13:31:41.185Z,102656.22
2019-05-14T13:33:42.546Z,102653.80
2019-05-14T13:35:43.906Z,102645.56
2019-05-14T13:37:45.302Z,102638.57
2019-05-14T13:39:52.709Z,102651.08
2019-05-14T13:41:49.978Z,102643.12
2019-05-14T13:43:51.351Z,102641.00
2019-05-14T13:45:52.711Z,102640.77
2019-05-14T13:47:54.115Z,102641.42
2019-05-14T13:49:55.473Z,102642.74
2019-05-14T13:51:56.837Z,102649.50
2019-05-14T13:53:58.941Z,102651.39
2019-05-14T13:56:00.488Z,102635.65
2019-05-14T13:58:01.981Z,102631.25
2019-05-14T14:00:11.532Z,102629.80
2019-05-14T14:02:09.824Z,102635.16
2019-05-14T14:04:15.075Z,102636.46
2019-05-14T14:06:14.962Z,102624.31
2019-05-14T14:08:19.118Z,102619.00
2019-05-14T14:10:19.714Z,102616.27
2019-05-14T14:12:25.016Z,102618.83
2019-05-14T14:14:24.383Z,102608.61
2019-05-14T14:16:28.359Z,102609.23
2019-05-14T14:18:29.424Z,102620.67
2019-05-14T14:20:30.911Z,102620.50
2019-05-14T14:22:32.326Z,102617.03
2019-05-14T14:24:33.683Z,102618.48
2019-05-14T14:26:35.044Z,102615.02
2019-05-14T14:28:39.272Z,102621.62
2019-05-14T14:30:39.806Z,102619.25
2019-05-14T14:32:41.205Z,102621.93
2019-05-14T14:34:42.560Z,102610.61
2019-05-14T14:36:43.922Z,102608.97
2019-05-14T14:38:45.427Z,102610.36
2019-05-14T14:40:48.611Z,102611.88
2019-05-14T14:42:50.127Z,102604.91
2019-05-14T14:44:51.528Z,102609.34
2019-05-14T14:46:52.887Z,102601.45
2019-05-14T14:48:57.741Z,102606.77
2019-05-14T14:50:58.680Z,102612.28
2019-05-14T14:53:00.238Z,102611.65
2019-05-14T14:55:02.239Z,102619.16
2019-05-14T14:57:03.597Z,102612.31
2019-05-14T14:59:04.989Z,102613.05
2019-05-14T15:01:08.565Z,102618.52
2019-05-14T15:03:10.177Z,102609.00
2019-05-14T15:05:14.337Z,102609.74
2019-05-14T15:07:15.349Z,102612.13
2019-05-14T15:09:16.728Z,102605.70
2019-05-14T15:11:18.125Z,102597.81
2019-05-14T15:13:19.500Z,102592.36
2019-05-14T17:12:57.137Z,102542.45
2019-05-14T17:14:58.656Z,102538.20
2019-05-14T17:17:00.006Z,102537.45
2019-05-14T17:19:01.526Z,102533.69
2019-05-14T17:21:02.980Z,102536.09
2019-05-14T17:23:04.404Z,102535.38
2019-05-14T17:25:09.047Z,102537.60
2019-05-14T17:27:09.640Z,102534.05
2019-05-14T17:29:11.041Z,102542.16
2019-05-14T17:31:12.413Z,102546.53
2019-05-14T17:33:13.811Z,102542.56
2019-05-14T17:35:15.312Z,102542.31
2019-05-14T17:37:18.914Z,102539.08
2019-05-14T17:39:19.980Z,102544.93
2019-05-14T17:41:21.382Z,102548.22
2019-05-14T17:43:23.363Z,102550.35
2019-05-14T17:45:24.861Z,102546.78
2019-05-14T17:47:28.865Z,102548.29
2019-05-14T17:49:29.714Z,102552.48
2019-05-14T17:51:31.110Z,102550.27
2019-05-14T17:53:32.495Z,102549.79
2019-05-14T17:55:46.407Z,102554.64
2019-05-14T17:57:44.245Z,102552.17
2019-05-14T17:59:40.506Z,102550.14
2019-05-14T18:01:41.894Z,102550.09
2019-05-14T18:03:43.277Z,102553.53
2019-05-14T18:05:44.840Z,102555.57
2019-05-14T18:07:48.268Z,102552.66
2019-05-14T18:09:49.537Z,102547.30
2019-05-14T18:11:50.934Z,102553.45
2019-05-14T18:13:52.314Z,102550.41
2019-05-14T18:15:53.666Z,102549.41
2019-05-14T18:17:55.114Z,102554.60
2019-05-14T18:19:58.759Z,102553.17
2019-05-14T18:22:00.001Z,102557.70
2019-05-14T18:24:01.455Z,102549.55
2019-05-14T18:26:08.345Z,102556.33
2019-05-14T18:28:09.088Z,102556.37
2019-05-14T18:30:10.726Z,102555.64
2019-05-14T18:32:12.113Z,102558.16
2019-05-14T18:34:13.502Z,102556.02
2019-05-14T18:36:14.948Z,102561.80
2019-05-14T18:38:16.309Z,102561.42
2019-05-14T18:40:18.344Z,102570.27
2019-05-14T18:42:19.921Z,102557.87
2019-05-14T18:44:21.345Z,102569.48
2019-05-14T18:46:24.193Z,102572.53
2019-05-14T18:48:25.580Z,102572.37
2019-05-14T18:50:28.885Z,102570.92
2019-05-14T18:52:30.532Z,102572.42
2019-05-14T18:54:31.896Z,102573.41
2019-05-14T18:56:33.286Z,102573.30
2019-05-14T18:58:34.686Z,102574.78
2019-05-14T19:00:38.649Z,102580.42
2019-05-14T19:02:39.490Z,102578.16
2019-05-14T19:04:40.946Z,102577.80
2019-05-14T19:06:42.304Z,102579.06
2019-05-14T19:08:43.728Z,102576.88
2019-05-14T19:10:45.149Z,102575.95
2019-05-14T19:12:47.786Z,102576.98
2019-05-14T19:14:49.847Z,102574.16
2019-05-14T19:16:51.240Z,102568.31
2019-05-14T19:18:52.673Z,102567.42
2019-05-14T19:20:54.062Z,102571.87
2019-05-14T19:22:55.449Z,102566.01
2019-05-14T19:24:58.680Z,102564.36
2019-05-14T19:27:00.256Z,102566.34
2019-05-14T19:29:01.637Z,102562.44
2019-05-14T19:31:03.134Z,102566.17
2019-05-14T19:33:04.610Z,102568.30
2019-05-14T19:35:08.423Z,102562.72
2019-05-14T19:37:09.629Z,102556.77
2019-05-14T19:39:11.013Z,102562.75
2019-05-14T19:41:12.364Z,102558.10
2019-05-14T19:43:13.785Z,102557.70
2019-05-14T19:45:15.871Z,102557.61
2019-05-14T19:47:18.726Z,102555.44
2019-05-14T19:49:32.270Z,102559.39
2019-05-14T19:51:33.656Z,102556.44
2019-05-14T19:53:35.079Z,102555.92
2019-05-14T19:55:38.952Z,102555.63
2019-05-14T19:57:39.837Z,102552.35
2019-05-14T19:59:41.271Z,102550.88
2019-05-14T20:01:42.785Z,102559.23
2019-05-14T20:03:44.166Z,102557.86
2019-05-14T20:05:45.589Z,102554.38
2019-05-14T20:07:48.993Z,102553.72
2019-05-14T20:09:50.359Z,102552.43
2019-05-14T20:11:51.786Z,102552.93
2019-05-14T20:13:53.174Z,102556.06
2019-05-14T20:15:54.552Z,102555.36
2019-05-14T20:17:58.034Z,102551.04
2019-05-14T20:19:59.497Z,102550.98
2019-05-14T20:22:01.204Z,102555.14
2019-05-14T20:24:02.682Z,102555.49
2019-05-14T20:26:04.086Z,102551.31
2019-05-14T20:28:05.473Z,102550.53
2019-05-14T20:30:08.707Z,102551.03
2019-05-14T20:32:10.226Z,102547.19
2019-05-14T20:34:11.565Z,102553.16
2019-05-14T20:36:12.958Z,102546.47
2019-05-14T20:38:14.544Z,102549.55
2019-05-14T20:40:16.566Z,102546.94
2019-05-14T20:42:18.544Z,102546.84
2019-05-14T20:44:20.154Z,102545.59
2019-05-14T20:46:21.546Z,102546.07
2019-05-14T20:48:22.929Z,102547.42
2019-05-14T20:50:24.326Z,102542.27
2019-05-14T20:52:25.710Z,102538.95
2019-05-14T20:54:29.006Z,102539.48
2019-05-14T20:56:30.423Z,102538.33
2019-05-14T20:58:31.883Z,102541.67
2019-05-14T21:00:33.253Z,102542.02
2019-05-14T21:02:34.637Z,102540.99
2019-05-14T21:04:36.049Z,102542.83
2019-05-14T21:06:39.046Z,102543.20
2019-05-14T21:08:40.669Z,102543.50
2019-05-14T21:10:42.079Z,102543.83
2019-05-14T21:12:43.525Z,102537.97
2019-05-14T21:14:44.889Z,102537.92
2019-05-14T21:16:48.672Z,102537.06
2019-05-14T21:18:49.611Z,102534.77
2019-05-14T21:20:51.016Z,102538.67
2019-05-14T21:22:52.408Z,102540.23
2019-05-14T21:24:53.842Z,102537.05
2019-05-14T21:26:55.260Z,102535.81
2019-05-14T21:28:58.234Z,102532.20
2019-05-14T21:31:00.371Z,102538.97
2019-05-14T21:33:01.773Z,102543.61
2019-05-14T21:35:04.480Z,102540.97
2019-05-14T21:37:05.905Z,102545.09
2019-05-14T21:39:08.047Z,102532.52
2019-05-14T21:41:09.685Z,102531.05
2019-05-14T21:43:11.401Z,102535.95
2019-05-14T21:45:13.281Z,102533.73
2019-05-14T21:47:14.661Z,102535.52
2019-05-14T21:49:16.095Z,102535.69
2019-05-14T21:51:18.066Z,102530.18
2019-05-14T21:53:19.648Z,102531.80
2019-05-14T21:55:21.036Z,102532.00
2019-05-14T21:57:22.426Z,102538.72
2019-05-14T21:59:23.821Z,102535.62
2019-05-14T22:01:27.748Z,102535.30
2019-05-14T22:03:28.898Z,102535.79
2019-05-14T22:05:30.250Z,102531.86
2019-05-14T22:07:31.664Z,102531.73
2019-05-14T22:09:33.395Z,102528.65
2019-05-14T22:11:35.017Z,102523.40
2019-05-14T22:13:38.120Z,102520.63
2019-05-14T22:15:39.901Z,102520.16
2019-05-14T22:17:41.305Z,102520.15
2019-05-14T22:19:42.691Z,102522.95
2019-05-14T22:21:44.126Z,102517.55
2019-05-14T22:23:48.021Z,102517.66
2019-05-14T22:25:48.784Z,102514.72
2019-05-14T22:27:50.194Z,102511.63
2019-05-14T22:29:51.604Z,102511.80
2019-05-14T22:31:52.968Z,102511.48
2019-05-14T22:33:54.382Z,102507.42
2019-05-14T22:35:57.937Z,102504.63
2019-05-14T22:37:59.778Z,102504.00
2019-05-14T22:40:01.202Z,102503.64
2019-05-14T22:42:02.691Z,102507.58
2019-05-14T22:44:04.054Z,102500.70
2019-05-14T22:46:05.474Z,102500.87
2019-05-14T22:48:09.141Z,102502.48
2019-05-14T22:50:10.594Z,102497.91
2019-05-14T22:52:11.976Z,102498.73
2019-05-14T22:54:13.358Z,102500.55
2019-05-14T22:56:14.803Z,102500.70
2019-05-14T22:58:25.209Z,102494.81
2019-05-14T23:00:21.169Z,102491.04
2019-05-14T23:02:22.660Z,102491.84
2019-05-14T23:04:24.040Z,102492.01
2019-05-14T23:06:25.505Z,102493.97
2019-05-14T23:08:26.926Z,102496.55
2019-05-14T23:10:28.410Z,102491.65
2019-05-14T23:12:29.795Z,102489.06
2019-05-14T23:14:31.218Z,102488.54
2019-05-14T23:16:37.784Z,102493.38
2019-05-14T23:18:37.990Z,102483.91
2019-05-14T23:20:39.473Z,102483.39
2019-05-14T23:22:40.835Z,102478.69
2019-05-14T23:24:42.230Z,102471.69
2019-05-14T23:26:43.643Z,102472.16
2019-05-14T23:28:46.071Z,102470.20
2019-05-14T23:30:48.362Z,102466.23
2019-05-14T23:32:49.729Z,102462.17
2019-05-14T23:34:51.211Z,102455.30
2019-05-14T23:36:52.606Z,102463.63
2019-05-14T23:38:54.988Z,102463.19
2019-05-14T23:40:58.772Z,102464.12
2019-05-14T23:43:00.310Z,102463.73
2019-05-14T23:45:02.885Z,102462.81
2019-05-14T23:47:04.308Z,102464.55
2019-05-14T23:49:05.670Z,102466.69
2019-05-14T23:51:08.093Z,102463.19
2019-05-14T23:53:09.766Z,102464.00
2019-05-14T23:55:11.430Z,102461.14
2019-05-14T23:57:12.866Z,102464.80
2019-05-14T23:59:14.230Z,102463.73
